sensor_id;sensor_type;location;lat;lon;timestamp;P1;durP1;ratioP1;P2;durP2;ratioP2
80400;SDS011;69727;53.132;8.230;2023-05-15T00:02:19;10.60;;;7.13;;
80400;SDS011;69727;53.132;8.230;2023-05-15T00:04:44;10.55;;;7.47;;
80400;SDS011;69727;53.132;8.230;2023-05-15T00:07:10;12.90;;;8.55;;
80400;SDS011;69727;53.132;8.230;2023-05-15T00:09:35;11.05;;;7.50;;
80400;SDS011;69727;53.132;8.230;2023-05-15T00:12:01;12.73;;;8.47;;
80400;SDS011;69727;53.132;8.230;2023-05-15T00:14:27;12.02;;;7.72;;
80400;SDS011;69727;53.132;8.230;2023-05-15T00:16:52;11.98;;;8.27;;
80400;SDS011;69727;53.132;8.230;2023-05-15T00:19:18;12.93;;;7.93;;
80400;SDS011;69727;53.132;8.230;2023-05-15T00:21:43;11.77;;;7.47;;
80400;SDS011;69727;53.132;8.230;2023-05-15T00:24:09;11.68;;;8.43;;
80400;SDS011;69727;53.132;8.230;2023-05-15T00:26:34;12.30;;;8.43;;
80400;SDS011;69727;53.132;8.230;2023-05-15T00:29:00;15.10;;;9.48;;
80400;SDS011;69727;53.132;8.230;2023-05-15T00:31:26;14.70;;;10.07;;
80400;SDS011;69727;53.132;8.230;2023-05-15T00:33:51;15.07;;;10.10;;
80400;SDS011;69727;53.132;8.230;2023-05-15T00:36:17;14.17;;;10.07;;
80400;SDS011;69727;53.132;8.230;2023-05-15T00:38:42;16.55;;;10.35;;
80400;SDS011;69727;53.132;8.230;2023-05-15T00:41:07;16.13;;;10.47;;
80400;SDS011;69727;53.132;8.230;2023-05-15T00:43:34;18.17;;;10.88;;
80400;SDS011;69727;53.132;8.230;2023-05-15T00:46:01;19.70;;;10.10;;
80400;SDS011;69727;53.132;8.230;2023-05-15T00:48:28;15.70;;;10.77;;
80400;SDS011;69727;53.132;8.230;2023-05-15T00:50:56;13.95;;;9.30;;
80400;SDS011;69727;53.132;8.230;2023-05-15T00:53:23;16.92;;;10.35;;
80400;SDS011;69727;53.132;8.230;2023-05-15T00:55:48;14.50;;;10.27;;
80400;SDS011;69727;53.132;8.230;2023-05-15T00:58:14;16.45;;;11.10;;
80400;SDS011;69727;53.132;8.230;2023-05-15T01:00:43;17.60;;;10.48;;
80400;SDS011;69727;53.132;8.230;2023-05-15T01:03:11;18.23;;;12.27;;
80400;SDS011;69727;53.132;8.230;2023-05-15T01:05:36;16.73;;;11.15;;
80400;SDS011;69727;53.132;8.230;2023-05-15T01:10:39;17.65;;;11.65;;
80400;SDS011;69727;53.132;8.230;2023-05-15T01:13:06;16.65;;;10.80;;
80400;SDS011;69727;53.132;8.230;2023-05-15T01:15:33;15.95;;;10.20;;
80400;SDS011;69727;53.132;8.230;2023-05-15T01:17:59;16.63;;;10.95;;
80400;SDS011;69727;53.132;8.230;2023-05-15T01:20:25;18.52;;;12.10;;
80400;SDS011;69727;53.132;8.230;2023-05-15T01:22:58;16.95;;;10.93;;
80400;SDS011;69727;53.132;8.230;2023-05-15T01:28:28;17.25;;;10.98;;
80400;SDS011;69727;53.132;8.230;2023-05-15T01:30:58;18.63;;;11.32;;
80400;SDS011;69727;53.132;8.230;2023-05-15T01:33:36;17.48;;;10.93;;
80400;SDS011;69727;53.132;8.230;2023-05-15T01:38:49;16.63;;;9.82;;
80400;SDS011;69727;53.132;8.230;2023-05-15T01:43:50;17.65;;;11.45;;
80400;SDS011;69727;53.132;8.230;2023-05-15T01:46:20;15.73;;;9.43;;
80400;SDS011;69727;53.132;8.230;2023-05-15T01:48:47;16.38;;;10.88;;
80400;SDS011;69727;53.132;8.230;2023-05-15T01:51:15;17.13;;;10.85;;
80400;SDS011;69727;53.132;8.230;2023-05-15T01:53:42;16.10;;;10.77;;
80400;SDS011;69727;53.132;8.230;2023-05-15T01:56:10;22.13;;;12.23;;
80400;SDS011;69727;53.132;8.230;2023-05-15T01:58:37;17.10;;;11.77;;
80400;SDS011;69727;53.132;8.230;2023-05-15T02:01:04;19.35;;;12.18;;
80400;SDS011;69727;53.132;8.230;2023-05-15T02:03:31;19.98;;;12.80;;
80400;SDS011;69727;53.132;8.230;2023-05-15T02:05:58;23.40;;;15.73;;
80400;SDS011;69727;53.132;8.230;2023-05-15T02:08:26;21.13;;;13.32;;
80400;SDS011;69727;53.132;8.230;2023-05-15T02:10:53;20.65;;;12.77;;
80400;SDS011;69727;53.132;8.230;2023-05-15T02:13:20;22.92;;;13.50;;
80400;SDS011;69727;53.132;8.230;2023-05-15T02:15:48;20.13;;;12.30;;
80400;SDS011;69727;53.132;8.230;2023-05-15T02:18:13;23.33;;;13.55;;
80400;SDS011;69727;53.132;8.230;2023-05-15T02:20:39;25.05;;;14.13;;
80400;SDS011;69727;53.132;8.230;2023-05-15T02:23:04;30.08;;;16.63;;
80400;SDS011;69727;53.132;8.230;2023-05-15T02:28:59;24.48;;;14.70;;
80400;SDS011;69727;53.132;8.230;2023-05-15T02:31:34;24.40;;;14.20;;
80400;SDS011;69727;53.132;8.230;2023-05-15T02:34:24;21.20;;;12.70;;
80400;SDS011;69727;53.132;8.230;2023-05-15T02:36:55;24.20;;;14.85;;
80400;SDS011;69727;53.132;8.230;2023-05-15T02:39:24;25.27;;;14.57;;
80400;SDS011;69727;53.132;8.230;2023-05-15T02:41:51;24.58;;;14.68;;
80400;SDS011;69727;53.132;8.230;2023-05-15T02:44:17;25.60;;;15.48;;
80400;SDS011;69727;53.132;8.230;2023-05-15T02:46:45;24.92;;;15.55;;
80400;SDS011;69727;53.132;8.230;2023-05-15T02:49:12;26.30;;;15.45;;
80400;SDS011;69727;53.132;8.230;2023-05-15T02:51:39;28.17;;;17.67;;
80400;SDS011;69727;53.132;8.230;2023-05-15T02:54:04;27.23;;;17.37;;
80400;SDS011;69727;53.132;8.230;2023-05-15T02:56:30;30.05;;;18.20;;
80400;SDS011;69727;53.132;8.230;2023-05-15T02:58:56;28.48;;;17.33;;
80400;SDS011;69727;53.132;8.230;2023-05-15T03:01:21;30.23;;;18.60;;
80400;SDS011;69727;53.132;8.230;2023-05-15T03:03:47;32.58;;;19.95;;
80400;SDS011;69727;53.132;8.230;2023-05-15T03:06:12;36.43;;;21.00;;
80400;SDS011;69727;53.132;8.230;2023-05-15T03:08:37;43.73;;;21.13;;
80400;SDS011;69727;53.132;8.230;2023-05-15T03:11:03;38.13;;;21.53;;
80400;SDS011;69727;53.132;8.230;2023-05-15T03:13:28;38.63;;;21.17;;
80400;SDS011;69727;53.132;8.230;2023-05-15T03:15:54;38.77;;;21.73;;
80400;SDS011;69727;53.132;8.230;2023-05-15T03:18:19;35.00;;;20.67;;
80400;SDS011;69727;53.132;8.230;2023-05-15T03:20:46;41.70;;;23.43;;
80400;SDS011;69727;53.132;8.230;2023-05-15T03:23:12;39.33;;;21.25;;
80400;SDS011;69727;53.132;8.230;2023-05-15T03:25:37;43.67;;;24.40;;
80400;SDS011;69727;53.132;8.230;2023-05-15T03:28:03;36.37;;;20.10;;
80400;SDS011;69727;53.132;8.230;2023-05-15T03:30:28;40.03;;;23.52;;
80400;SDS011;69727;53.132;8.230;2023-05-15T03:32:54;42.87;;;24.17;;
80400;SDS011;69727;53.132;8.230;2023-05-15T03:35:21;42.80;;;23.60;;
80400;SDS011;69727;53.132;8.230;2023-05-15T03:37:46;42.58;;;24.88;;
80400;SDS011;69727;53.132;8.230;2023-05-15T03:40:12;41.60;;;22.90;;
80400;SDS011;69727;53.132;8.230;2023-05-15T03:42:38;40.38;;;22.67;;
80400;SDS011;69727;53.132;8.230;2023-05-15T03:45:03;46.40;;;26.00;;
80400;SDS011;69727;53.132;8.230;2023-05-15T03:47:29;47.10;;;24.50;;
80400;SDS011;69727;53.132;8.230;2023-05-15T03:49:54;43.10;;;23.93;;
80400;SDS011;69727;53.132;8.230;2023-05-15T03:52:20;44.50;;;23.97;;
80400;SDS011;69727;53.132;8.230;2023-05-15T03:54:45;47.58;;;25.33;;
80400;SDS011;69727;53.132;8.230;2023-05-15T03:57:11;47.03;;;26.08;;
80400;SDS011;69727;53.132;8.230;2023-05-15T03:59:36;43.58;;;24.70;;
80400;SDS011;69727;53.132;8.230;2023-05-15T04:02:01;46.43;;;25.33;;
80400;SDS011;69727;53.132;8.230;2023-05-15T04:04:27;44.57;;;24.90;;
80400;SDS011;69727;53.132;8.230;2023-05-15T04:06:52;43.30;;;24.20;;
80400;SDS011;69727;53.132;8.230;2023-05-15T04:09:18;45.03;;;24.87;;
80400;SDS011;69727;53.132;8.230;2023-05-15T04:11:43;46.67;;;26.23;;
80400;SDS011;69727;53.132;8.230;2023-05-15T04:14:10;50.35;;;26.08;;
80400;SDS011;69727;53.132;8.230;2023-05-15T04:16:36;47.83;;;26.08;;
80400;SDS011;69727;53.132;8.230;2023-05-15T04:19:01;49.20;;;26.42;;
80400;SDS011;69727;53.132;8.230;2023-05-15T04:21:27;49.27;;;26.17;;
80400;SDS011;69727;53.132;8.230;2023-05-15T04:23:52;48.60;;;24.67;;
80400;SDS011;69727;53.132;8.230;2023-05-15T04:26:17;44.30;;;24.10;;
80400;SDS011;69727;53.132;8.230;2023-05-15T04:28:43;43.97;;;22.00;;
80400;SDS011;69727;53.132;8.230;2023-05-15T04:31:08;49.60;;;26.70;;
80400;SDS011;69727;53.132;8.230;2023-05-15T04:33:33;45.13;;;25.33;;
80400;SDS011;69727;53.132;8.230;2023-05-15T04:35:59;43.05;;;23.45;;
80400;SDS011;69727;53.132;8.230;2023-05-15T04:38:24;45.63;;;24.95;;
80400;SDS011;69727;53.132;8.230;2023-05-15T04:40:50;44.00;;;24.02;;
80400;SDS011;69727;53.132;8.230;2023-05-15T04:43:15;52.57;;;24.93;;
80400;SDS011;69727;53.132;8.230;2023-05-15T04:45:40;41.83;;;24.23;;
80400;SDS011;69727;53.132;8.230;2023-05-15T04:48:06;47.40;;;25.40;;
80400;SDS011;69727;53.132;8.230;2023-05-15T04:50:31;42.70;;;24.30;;
80400;SDS011;69727;53.132;8.230;2023-05-15T04:52:57;44.60;;;24.00;;
80400;SDS011;69727;53.132;8.230;2023-05-15T04:55:22;41.17;;;23.87;;
80400;SDS011;69727;53.132;8.230;2023-05-15T04:57:47;46.47;;;24.95;;
80400;SDS011;69727;53.132;8.230;2023-05-15T05:00:13;43.55;;;23.83;;
80400;SDS011;69727;53.132;8.230;2023-05-15T05:02:39;44.08;;;25.05;;
80400;SDS011;69727;53.132;8.230;2023-05-15T05:05:07;43.72;;;24.35;;
80400;SDS011;69727;53.132;8.230;2023-05-15T05:07:33;36.97;;;21.80;;
80400;SDS011;69727;53.132;8.230;2023-05-15T05:09:59;41.97;;;22.63;;
80400;SDS011;69727;53.132;8.230;2023-05-15T05:12:24;38.00;;;21.00;;
80400;SDS011;69727;53.132;8.230;2023-05-15T05:14:50;38.70;;;21.33;;
80400;SDS011;69727;53.132;8.230;2023-05-15T05:17:15;37.92;;;21.85;;
80400;SDS011;69727;53.132;8.230;2023-05-15T05:19:41;39.20;;;20.92;;
80400;SDS011;69727;53.132;8.230;2023-05-15T05:22:06;37.75;;;21.00;;
80400;SDS011;69727;53.132;8.230;2023-05-15T05:24:32;35.85;;;20.67;;
80400;SDS011;69727;53.132;8.230;2023-05-15T05:27:01;40.92;;;20.92;;
80400;SDS011;69727;53.132;8.230;2023-05-15T05:29:28;35.47;;;20.83;;
80400;SDS011;69727;53.132;8.230;2023-05-15T05:31:54;36.10;;;19.77;;
80400;SDS011;69727;53.132;8.230;2023-05-15T05:34:20;36.13;;;20.48;;
80400;SDS011;69727;53.132;8.230;2023-05-15T05:36:46;33.38;;;19.13;;
80400;SDS011;69727;53.132;8.230;2023-05-15T05:39:11;36.13;;;20.17;;
80400;SDS011;69727;53.132;8.230;2023-05-15T05:41:37;33.50;;;18.17;;
80400;SDS011;69727;53.132;8.230;2023-05-15T05:44:02;32.92;;;18.92;;
80400;SDS011;69727;53.132;8.230;2023-05-15T05:46:28;35.15;;;18.88;;
80400;SDS011;69727;53.132;8.230;2023-05-15T05:48:53;33.63;;;17.27;;
80400;SDS011;69727;53.132;8.230;2023-05-15T05:51:18;28.65;;;16.13;;
80400;SDS011;69727;53.132;8.230;2023-05-15T05:53:44;31.35;;;16.40;;
80400;SDS011;69727;53.132;8.230;2023-05-15T05:56:10;31.73;;;18.00;;
80400;SDS011;69727;53.132;8.230;2023-05-15T05:58:35;28.73;;;15.95;;
80400;SDS011;69727;53.132;8.230;2023-05-15T06:01:01;31.17;;;16.05;;
80400;SDS011;69727;53.132;8.230;2023-05-15T06:03:26;27.60;;;15.20;;
80400;SDS011;69727;53.132;8.230;2023-05-15T06:05:52;27.42;;;15.18;;
80400;SDS011;69727;53.132;8.230;2023-05-15T06:08:18;26.05;;;14.05;;
80400;SDS011;69727;53.132;8.230;2023-05-15T06:10:44;25.45;;;13.25;;
80400;SDS011;69727;53.132;8.230;2023-05-15T06:13:10;24.50;;;13.48;;
80400;SDS011;69727;53.132;8.230;2023-05-15T06:15:36;28.33;;;14.35;;
80400;SDS011;69727;53.132;8.230;2023-05-15T06:18:01;24.17;;;13.35;;
80400;SDS011;69727;53.132;8.230;2023-05-15T06:20:27;27.50;;;14.02;;
80400;SDS011;69727;53.132;8.230;2023-05-15T06:22:52;23.45;;;12.65;;
80400;SDS011;69727;53.132;8.230;2023-05-15T06:25:18;22.10;;;12.10;;
80400;SDS011;69727;53.132;8.230;2023-05-15T06:27:43;25.65;;;13.40;;
80400;SDS011;69727;53.132;8.230;2023-05-15T06:30:09;25.90;;;14.65;;
80400;SDS011;69727;53.132;8.230;2023-05-15T06:32:35;23.90;;;13.02;;
80400;SDS011;69727;53.132;8.230;2023-05-15T06:35:00;24.83;;;14.07;;
80400;SDS011;69727;53.132;8.230;2023-05-15T06:37:26;22.70;;;12.90;;
80400;SDS011;69727;53.132;8.230;2023-05-15T06:39:53;25.95;;;14.05;;
80400;SDS011;69727;53.132;8.230;2023-05-15T06:42:18;26.10;;;12.57;;
80400;SDS011;69727;53.132;8.230;2023-05-15T06:44:44;19.45;;;11.68;;
80400;SDS011;69727;53.132;8.230;2023-05-15T06:47:11;22.98;;;11.60;;
80400;SDS011;69727;53.132;8.230;2023-05-15T06:49:36;20.20;;;11.40;;
80400;SDS011;69727;53.132;8.230;2023-05-15T06:52:02;20.30;;;11.90;;
80400;SDS011;69727;53.132;8.230;2023-05-15T06:54:27;16.83;;;10.52;;
80400;SDS011;69727;53.132;8.230;2023-05-15T06:56:53;20.93;;;11.40;;
80400;SDS011;69727;53.132;8.230;2023-05-15T06:59:18;17.98;;;11.23;;
80400;SDS011;69727;53.132;8.230;2023-05-15T07:01:43;17.73;;;10.93;;
80400;SDS011;69727;53.132;8.230;2023-05-15T07:04:09;18.20;;;10.73;;
80400;SDS011;69727;53.132;8.230;2023-05-15T07:06:34;16.58;;;10.43;;
80400;SDS011;69727;53.132;8.230;2023-05-15T07:09:01;18.27;;;11.23;;
80400;SDS011;69727;53.132;8.230;2023-05-15T07:11:27;17.85;;;10.43;;
80400;SDS011;69727;53.132;8.230;2023-05-15T07:13:53;16.98;;;10.35;;
80400;SDS011;69727;53.132;8.230;2023-05-15T07:16:18;14.93;;;9.65;;
80400;SDS011;69727;53.132;8.230;2023-05-15T07:18:44;18.95;;;10.40;;
80400;SDS011;69727;53.132;8.230;2023-05-15T07:21:09;15.95;;;9.75;;
80400;SDS011;69727;53.132;8.230;2023-05-15T07:23:35;17.38;;;10.13;;
80400;SDS011;69727;53.132;8.230;2023-05-15T07:26:00;13.83;;;9.37;;
80400;SDS011;69727;53.132;8.230;2023-05-15T07:28:25;14.53;;;9.33;;
80400;SDS011;69727;53.132;8.230;2023-05-15T07:30:51;14.07;;;9.40;;
80400;SDS011;69727;53.132;8.230;2023-05-15T07:33:16;15.15;;;9.50;;
80400;SDS011;69727;53.132;8.230;2023-05-15T07:35:42;17.17;;;10.10;;
80400;SDS011;69727;53.132;8.230;2023-05-15T07:38:07;15.77;;;10.40;;
80400;SDS011;69727;53.132;8.230;2023-05-15T07:40:33;14.43;;;10.07;;
80400;SDS011;69727;53.132;8.230;2023-05-15T07:42:58;16.42;;;10.15;;
80400;SDS011;69727;53.132;8.230;2023-05-15T07:45:24;13.05;;;9.32;;
80400;SDS011;69727;53.132;8.230;2023-05-15T07:47:49;15.63;;;10.15;;
80400;SDS011;69727;53.132;8.230;2023-05-15T07:50:15;16.20;;;10.87;;
80400;SDS011;69727;53.132;8.230;2023-05-15T07:52:41;14.10;;;10.07;;
80400;SDS011;69727;53.132;8.230;2023-05-15T07:55:08;15.13;;;10.20;;
80400;SDS011;69727;53.132;8.230;2023-05-15T07:57:34;14.32;;;9.43;;
80400;SDS011;69727;53.132;8.230;2023-05-15T07:59:59;18.25;;;10.35;;
80400;SDS011;69727;53.132;8.230;2023-05-15T08:02:29;13.60;;;9.15;;
80400;SDS011;69727;53.132;8.230;2023-05-15T08:04:54;15.45;;;9.95;;
80400;SDS011;69727;53.132;8.230;2023-05-15T08:07:20;13.98;;;9.65;;
80400;SDS011;69727;53.132;8.230;2023-05-15T08:09:45;19.30;;;11.65;;
80400;SDS011;69727;53.132;8.230;2023-05-15T08:12:20;15.03;;;9.90;;
80400;SDS011;69727;53.132;8.230;2023-05-15T08:14:50;16.83;;;10.85;;
80400;SDS011;69727;53.132;8.230;2023-05-15T08:17:17;15.93;;;10.68;;
80400;SDS011;69727;53.132;8.230;2023-05-15T08:19:43;15.68;;;9.63;;
80400;SDS011;69727;53.132;8.230;2023-05-15T08:22:09;14.65;;;10.27;;
80400;SDS011;69727;53.132;8.230;2023-05-15T08:24:35;15.80;;;10.43;;
80400;SDS011;69727;53.132;8.230;2023-05-15T08:27:01;18.45;;;10.48;;
80400;SDS011;69727;53.132;8.230;2023-05-15T08:29:28;17.73;;;10.77;;
80400;SDS011;69727;53.132;8.230;2023-05-15T08:31:53;14.18;;;9.60;;
80400;SDS011;69727;53.132;8.230;2023-05-15T08:34:19;15.63;;;10.20;;
80400;SDS011;69727;53.132;8.230;2023-05-15T08:36:44;16.10;;;10.97;;
80400;SDS011;69727;53.132;8.230;2023-05-15T08:39:09;14.53;;;10.13;;
80400;SDS011;69727;53.132;8.230;2023-05-15T08:41:37;15.23;;;10.18;;
80400;SDS011;69727;53.132;8.230;2023-05-15T08:44:10;19.63;;;11.65;;
80400;SDS011;69727;53.132;8.230;2023-05-15T08:46:37;16.95;;;11.05;;
80400;SDS011;69727;53.132;8.230;2023-05-15T08:49:05;18.17;;;11.95;;
80400;SDS011;69727;53.132;8.230;2023-05-15T08:51:38;16.75;;;11.10;;
80400;SDS011;69727;53.132;8.230;2023-05-15T08:54:04;14.65;;;10.27;;
80400;SDS011;69727;53.132;8.230;2023-05-15T08:56:29;16.50;;;10.77;;
80400;SDS011;69727;53.132;8.230;2023-05-15T08:58:55;17.33;;;10.55;;
80400;SDS011;69727;53.132;8.230;2023-05-15T09:01:21;16.90;;;11.00;;
80400;SDS011;69727;53.132;8.230;2023-05-15T09:03:47;16.02;;;10.77;;
80400;SDS011;69727;53.132;8.230;2023-05-15T09:06:12;16.98;;;11.23;;
80400;SDS011;69727;53.132;8.230;2023-05-15T09:08:38;16.60;;;11.45;;
80400;SDS011;69727;53.132;8.230;2023-05-15T09:13:32;16.42;;;10.20;;
80400;SDS011;69727;53.132;8.230;2023-05-15T09:15:58;15.88;;;10.55;;
80400;SDS011;69727;53.132;8.230;2023-05-15T09:18:24;18.17;;;11.77;;
80400;SDS011;69727;53.132;8.230;2023-05-15T09:20:50;16.73;;;10.65;;
80400;SDS011;69727;53.132;8.230;2023-05-15T09:23:25;16.67;;;10.77;;
80400;SDS011;69727;53.132;8.230;2023-05-15T09:25:51;17.52;;;10.77;;
80400;SDS011;69727;53.132;8.230;2023-05-15T09:28:26;15.27;;;10.77;;
80400;SDS011;69727;53.132;8.230;2023-05-15T09:30:58;14.90;;;10.45;;
80400;SDS011;69727;53.132;8.230;2023-05-15T09:33:31;16.67;;;10.77;;
80400;SDS011;69727;53.132;8.230;2023-05-15T09:35:58;17.17;;;11.73;;
80400;SDS011;69727;53.132;8.230;2023-05-15T09:38:24;15.98;;;10.93;;
80400;SDS011;69727;53.132;8.230;2023-05-15T09:40:50;18.15;;;11.45;;
80400;SDS011;69727;53.132;8.230;2023-05-15T09:43:27;17.77;;;12.30;;
80400;SDS011;69727;53.132;8.230;2023-05-15T09:45:53;18.27;;;11.90;;
80400;SDS011;69727;53.132;8.230;2023-05-15T09:48:19;17.65;;;11.70;;
80400;SDS011;69727;53.132;8.230;2023-05-15T09:50:45;16.38;;;10.93;;
80400;SDS011;69727;53.132;8.230;2023-05-15T09:53:12;16.48;;;11.60;;
80400;SDS011;69727;53.132;8.230;2023-05-15T09:55:38;19.30;;;12.07;;
80400;SDS011;69727;53.132;8.230;2023-05-15T09:58:06;15.93;;;11.35;;
80400;SDS011;69727;53.132;8.230;2023-05-15T10:00:34;16.95;;;11.18;;
80400;SDS011;69727;53.132;8.230;2023-05-15T10:03:00;18.30;;;12.80;;
80400;SDS011;69727;53.132;8.230;2023-05-15T10:05:28;18.02;;;12.20;;
80400;SDS011;69727;53.132;8.230;2023-05-15T10:07:55;20.05;;;11.60;;
80400;SDS011;69727;53.132;8.230;2023-05-15T10:10:21;17.13;;;12.52;;
80400;SDS011;69727;53.132;8.230;2023-05-15T10:12:48;18.73;;;11.20;;
80400;SDS011;69727;53.132;8.230;2023-05-15T10:15:18;14.15;;;9.95;;
80400;SDS011;69727;53.132;8.230;2023-05-15T10:17:48;17.02;;;10.50;;
80400;SDS011;69727;53.132;8.230;2023-05-15T10:20:18;15.48;;;10.30;;
80400;SDS011;69727;53.132;8.230;2023-05-15T10:22:46;17.85;;;10.88;;
80400;SDS011;69727;53.132;8.230;2023-05-15T10:27:58;19.55;;;11.52;;
80400;SDS011;69727;53.132;8.230;2023-05-15T10:30:24;16.55;;;12.13;;
80400;SDS011;69727;53.132;8.230;2023-05-15T10:32:51;15.80;;;11.35;;
80400;SDS011;69727;53.132;8.230;2023-05-15T10:35:16;15.82;;;10.88;;
80400;SDS011;69727;53.132;8.230;2023-05-15T10:37:43;19.15;;;13.07;;
80400;SDS011;69727;53.132;8.230;2023-05-15T10:40:10;21.70;;;13.73;;
80400;SDS011;69727;53.132;8.230;2023-05-15T10:42:37;19.65;;;12.07;;
80400;SDS011;69727;53.132;8.230;2023-05-15T10:45:05;18.65;;;12.57;;
80400;SDS011;69727;53.132;8.230;2023-05-15T10:47:32;18.65;;;13.00;;
80400;SDS011;69727;53.132;8.230;2023-05-15T10:49:58;19.77;;;12.48;;
80400;SDS011;69727;53.132;8.230;2023-05-15T10:52:24;19.05;;;12.23;;
80400;SDS011;69727;53.132;8.230;2023-05-15T10:54:51;19.65;;;13.30;;
80400;SDS011;69727;53.132;8.230;2023-05-15T10:57:17;20.75;;;12.70;;
80400;SDS011;69727;53.132;8.230;2023-05-15T10:59:45;18.55;;;12.55;;
80400;SDS011;69727;53.132;8.230;2023-05-15T11:02:23;20.45;;;13.32;;
80400;SDS011;69727;53.132;8.230;2023-05-15T11:05:00;18.35;;;11.88;;
80400;SDS011;69727;53.132;8.230;2023-05-15T11:07:27;21.08;;;13.52;;
80400;SDS011;69727;53.132;8.230;2023-05-15T11:09:54;18.75;;;12.95;;
80400;SDS011;69727;53.132;8.230;2023-05-15T11:12:20;22.10;;;14.13;;
80400;SDS011;69727;53.132;8.230;2023-05-15T11:17:24;20.17;;;12.98;;
80400;SDS011;69727;53.132;8.230;2023-05-15T11:27:22;18.52;;;12.52;;
80400;SDS011;69727;53.132;8.230;2023-05-15T11:30:32;18.55;;;12.43;;
80400;SDS011;69727;53.132;8.230;2023-05-15T11:35:19;18.10;;;12.20;;
80400;SDS011;69727;53.132;8.230;2023-05-15T11:37:49;16.67;;;11.38;;
80400;SDS011;69727;53.132;8.230;2023-05-15T11:40:43;19.67;;;12.52;;
80400;SDS011;69727;53.132;8.230;2023-05-15T11:43:20;15.65;;;11.27;;
80400;SDS011;69727;53.132;8.230;2023-05-15T11:45:51;15.43;;;10.45;;
80400;SDS011;69727;53.132;8.230;2023-05-15T11:48:22;14.75;;;10.27;;
80400;SDS011;69727;53.132;8.230;2023-05-15T11:50:48;14.43;;;9.90;;
80400;SDS011;69727;53.132;8.230;2023-05-15T11:53:17;17.38;;;11.35;;
80400;SDS011;69727;53.132;8.230;2023-05-15T11:55:43;16.23;;;11.57;;
80400;SDS011;69727;53.132;8.230;2023-05-15T11:58:14;15.95;;;10.88;;
80400;SDS011;69727;53.132;8.230;2023-05-15T12:00:41;15.63;;;10.43;;
80400;SDS011;69727;53.132;8.230;2023-05-15T12:03:22;16.55;;;11.45;;
80400;SDS011;69727;53.132;8.230;2023-05-15T12:05:51;20.17;;;12.23;;
80400;SDS011;69727;53.132;8.230;2023-05-15T12:08:18;15.80;;;11.68;;
80400;SDS011;69727;53.132;8.230;2023-05-15T12:10:47;14.65;;;10.25;;
80400;SDS011;69727;53.132;8.230;2023-05-15T12:13:14;12.90;;;9.60;;
80400;SDS011;69727;53.132;8.230;2023-05-15T12:15:42;13.13;;;9.73;;
80400;SDS011;69727;53.132;8.230;2023-05-15T12:18:08;13.80;;;10.20;;
80400;SDS011;69727;53.132;8.230;2023-05-15T12:20:35;12.25;;;9.98;;
80400;SDS011;69727;53.132;8.230;2023-05-15T12:23:02;13.90;;;8.43;;
80400;SDS011;69727;53.132;8.230;2023-05-15T12:25:28;14.27;;;10.07;;
80400;SDS011;69727;53.132;8.230;2023-05-15T12:27:54;13.65;;;9.63;;
80400;SDS011;69727;53.132;8.230;2023-05-15T12:30:20;13.75;;;10.15;;
80400;SDS011;69727;53.132;8.230;2023-05-15T12:32:46;17.63;;;9.50;;
80400;SDS011;69727;53.132;8.230;2023-05-15T12:35:12;14.18;;;9.77;;
80400;SDS011;69727;53.132;8.230;2023-05-15T12:37:38;14.77;;;10.55;;
80400;SDS011;69727;53.132;8.230;2023-05-15T12:40:04;13.73;;;10.18;;
80400;SDS011;69727;53.132;8.230;2023-05-15T12:42:37;11.55;;;8.60;;
80400;SDS011;69727;53.132;8.230;2023-05-15T12:45:10;11.10;;;8.75;;
80400;SDS011;69727;53.132;8.230;2023-05-15T12:47:37;12.07;;;8.38;;
80400;SDS011;69727;53.132;8.230;2023-05-15T12:50:10;9.40;;;5.68;;
80400;SDS011;69727;53.132;8.230;2023-05-15T12:52:52;8.07;;;5.57;;
80400;SDS011;69727;53.132;8.230;2023-05-15T12:55:25;8.65;;;5.82;;
80400;SDS011;69727;53.132;8.230;2023-05-15T12:57:54;10.18;;;5.65;;
80400;SDS011;69727;53.132;8.230;2023-05-15T13:00:21;7.18;;;4.90;;
80400;SDS011;69727;53.132;8.230;2023-05-15T13:02:48;7.50;;;4.55;;
80400;SDS011;69727;53.132;8.230;2023-05-15T13:05:16;6.93;;;4.28;;
80400;SDS011;69727;53.132;8.230;2023-05-15T13:07:42;7.35;;;4.22;;
80400;SDS011;69727;53.132;8.230;2023-05-15T13:10:08;7.18;;;4.18;;
80400;SDS011;69727;53.132;8.230;2023-05-15T13:12:40;7.50;;;4.32;;
80400;SDS011;69727;53.132;8.230;2023-05-15T13:15:07;6.13;;;4.30;;
80400;SDS011;69727;53.132;8.230;2023-05-15T13:17:46;7.53;;;4.25;;
80400;SDS011;69727;53.132;8.230;2023-05-15T13:20:12;6.43;;;3.80;;
80400;SDS011;69727;53.132;8.230;2023-05-15T13:22:37;5.63;;;3.55;;
80400;SDS011;69727;53.132;8.230;2023-05-15T13:25:02;7.97;;;4.13;;
80400;SDS011;69727;53.132;8.230;2023-05-15T13:27:28;9.70;;;4.47;;
80400;SDS011;69727;53.132;8.230;2023-05-15T13:29:54;6.22;;;3.60;;
80400;SDS011;69727;53.132;8.230;2023-05-15T13:32:20;6.07;;;3.90;;
80400;SDS011;69727;53.132;8.230;2023-05-15T13:34:46;6.10;;;3.75;;
80400;SDS011;69727;53.132;8.230;2023-05-15T13:37:11;7.15;;;3.53;;
80400;SDS011;69727;53.132;8.230;2023-05-15T13:39:37;7.72;;;3.58;;
80400;SDS011;69727;53.132;8.230;2023-05-15T13:42:03;5.53;;;3.42;;
80400;SDS011;69727;53.132;8.230;2023-05-15T13:44:28;8.32;;;3.78;;
80400;SDS011;69727;53.132;8.230;2023-05-15T13:46:54;8.73;;;3.70;;
80400;SDS011;69727;53.132;8.230;2023-05-15T13:49:19;9.03;;;3.97;;
80400;SDS011;69727;53.132;8.230;2023-05-15T13:51:45;8.77;;;4.00;;
80400;SDS011;69727;53.132;8.230;2023-05-15T13:54:10;7.93;;;4.20;;
80400;SDS011;69727;53.132;8.230;2023-05-15T13:56:36;6.93;;;4.13;;
80400;SDS011;69727;53.132;8.230;2023-05-15T13:59:01;9.60;;;4.47;;
80400;SDS011;69727;53.132;8.230;2023-05-15T14:01:26;6.03;;;3.67;;
80400;SDS011;69727;53.132;8.230;2023-05-15T14:03:52;8.10;;;4.50;;
80400;SDS011;69727;53.132;8.230;2023-05-15T14:06:18;5.78;;;3.58;;
80400;SDS011;69727;53.132;8.230;2023-05-15T14:08:43;7.40;;;3.80;;
80400;SDS011;69727;53.132;8.230;2023-05-15T14:11:09;5.35;;;3.13;;
80400;SDS011;69727;53.132;8.230;2023-05-15T14:13:35;6.40;;;3.45;;
80400;SDS011;69727;53.132;8.230;2023-05-15T14:16:00;6.57;;;3.40;;
80400;SDS011;69727;53.132;8.230;2023-05-15T14:18:26;8.25;;;3.58;;
80400;SDS011;69727;53.132;8.230;2023-05-15T14:20:51;6.35;;;3.50;;
80400;SDS011;69727;53.132;8.230;2023-05-15T14:23:17;5.10;;;3.30;;
80400;SDS011;69727;53.132;8.230;2023-05-15T14:25:43;7.07;;;3.65;;
80400;SDS011;69727;53.132;8.230;2023-05-15T14:28:08;7.67;;;4.03;;
80400;SDS011;69727;53.132;8.230;2023-05-15T14:30:34;6.57;;;3.53;;
80400;SDS011;69727;53.132;8.230;2023-05-15T14:32:59;8.03;;;4.17;;
80400;SDS011;69727;53.132;8.230;2023-05-15T14:35:25;4.70;;;3.25;;
80400;SDS011;69727;53.132;8.230;2023-05-15T14:37:50;6.22;;;3.40;;
80400;SDS011;69727;53.132;8.230;2023-05-15T14:40:16;5.00;;;3.22;;
80400;SDS011;69727;53.132;8.230;2023-05-15T14:42:41;6.13;;;3.33;;
80400;SDS011;69727;53.132;8.230;2023-05-15T14:45:07;4.97;;;3.00;;
80400;SDS011;69727;53.132;8.230;2023-05-15T14:47:32;6.97;;;3.20;;
80400;SDS011;69727;53.132;8.230;2023-05-15T14:49:58;7.35;;;3.38;;
80400;SDS011;69727;53.132;8.230;2023-05-15T14:52:23;6.80;;;3.53;;
80400;SDS011;69727;53.132;8.230;2023-05-15T14:54:49;8.10;;;3.42;;
80400;SDS011;69727;53.132;8.230;2023-05-15T14:57:14;5.13;;;3.28;;